createdAt,value
2023-03-15T00:00:12.628Z,94919.97
2023-03-15T00:02:41.852Z,94922.28
2023-03-15T00:05:14.254Z,94923.56
2023-03-15T00:07:42.615Z,94926.72
2023-03-15T00:10:13.512Z,94925.19
2023-03-15T00:12:43.340Z,94933.72
2023-03-15T00:15:14.709Z,94939.53
2023-03-15T00:17:45.152Z,94937.00
2023-03-15T00:20:14.948Z,94939.13
2023-03-15T00:22:43.366Z,94917.78
2023-03-15T00:25:13.476Z,94940.00
2023-03-15T00:27:41.762Z,94941.38
2023-03-15T00:30:11.475Z,94950.16
2023-03-15T00:32:39.903Z,94953.38
2023-03-15T00:35:08.886Z,94946.47
2023-03-15T00:37:37.756Z,94961.84
2023-03-15T00:40:07.537Z,94969.00
2023-03-15T00:42:37.371Z,94938.22
2023-03-15T00:45:06.534Z,94952.97
2023-03-15T00:47:34.893Z,94967.25
2023-03-15T00:50:03.174Z,94961.94
2023-03-15T00:52:37.278Z,94942.00
2023-03-15T00:55:06.481Z,94975.47
2023-03-15T00:57:36.673Z,94980.09
2023-03-15T01:00:06.259Z,94974.50
2023-03-15T01:02:34.861Z,94976.56
2023-03-15T01:05:03.514Z,94973.41
2023-03-15T01:07:33.628Z,94935.06
2023-03-15T01:10:02.630Z,94976.66
2023-03-15T01:12:32.693Z,94974.00
2023-03-15T01:15:04.233Z,94978.75
2023-03-15T01:17:32.839Z,94980.19
2023-03-15T01:20:01.358Z,94975.53
2023-03-15T01:22:29.672Z,94971.66
2023-03-15T01:24:58.057Z,94987.38
2023-03-15T01:27:26.362Z,94987.38
2023-03-15T01:29:55.124Z,94978.72
2023-03-15T01:32:24.817Z,94987.94
2023-03-15T01:34:53.115Z,94988.44
2023-03-15T01:37:24.824Z,94994.09
2023-03-15T01:39:53.379Z,94988.34
2023-03-15T01:42:21.815Z,94999.41
2023-03-15T01:44:56.002Z,94997.59
2023-03-15T01:47:27.192Z,95000.16
2023-03-15T01:50:03.104Z,95001.88
2023-03-15T01:52:35.800Z,95008.13
2023-03-15T01:55:10.330Z,94975.38
2023-03-15T01:57:42.963Z,95008.94
2023-03-15T02:00:13.991Z,95002.59
2023-03-15T02:02:48.771Z,95013.19
2023-03-15T02:05:21.790Z,95007.97
2023-03-15T02:07:51.246Z,94999.72
2023-03-15T02:10:25.315Z,95016.31
2023-03-15T02:12:54.171Z,95016.28
2023-03-15T02:15:22.451Z,95017.72
2023-03-15T02:17:52.648Z,95017.38
2023-03-15T02:20:32.840Z,95023.63
2023-03-15T02:23:04.090Z,95026.50
2023-03-15T02:25:41.054Z,95025.44
2023-03-15T02:28:13.519Z,95033.41
2023-03-15T02:30:42.680Z,95027.75
2023-03-15T02:33:17.522Z,95035.25
2023-03-15T02:35:45.810Z,95032.72
2023-03-15T02:38:14.219Z,95032.59
2023-03-15T02:40:42.787Z,95029.69
2023-03-15T02:43:17.414Z,95023.72
2023-03-15T02:45:47.293Z,95004.00
2023-03-15T02:48:15.744Z,95028.56
2023-03-15T02:50:44.263Z,95032.25
2023-03-15T02:53:13.151Z,95040.00
2023-03-15T02:55:41.475Z,95031.69
2023-03-15T02:58:10.059Z,95015.97
2023-03-15T03:00:39.806Z,95049.44
2023-03-15T03:03:09.066Z,95059.94
2023-03-15T03:05:37.380Z,95054.38
2023-03-15T03:08:06.052Z,95058.50
2023-03-15T03:10:34.310Z,95061.41
2023-03-15T03:13:02.699Z,95070.28
2023-03-15T03:15:31.414Z,95080.53
2023-03-15T03:18:01.126Z,95058.50
2023-03-15T03:20:29.569Z,95066.22
2023-03-15T03:22:57.805Z,95058.50
2023-03-15T03:25:27.449Z,95073.47
2023-03-15T03:27:57.542Z,95061.44
2023-03-15T03:30:25.916Z,95076.44
2023-03-15T03:32:54.236Z,95052.47
2023-03-15T03:35:23.994Z,95072.16
2023-03-15T03:37:53.677Z,95075.28
2023-03-15T03:40:22.136Z,95070.78
2023-03-15T03:42:50.762Z,95030.03
2023-03-15T03:45:19.267Z,95074.94
2023-03-15T03:47:48.346Z,95074.94
2023-03-15T03:50:16.778Z,95087.38
2023-03-15T03:52:46.562Z,95089.78
2023-03-15T03:55:14.932Z,95090.69
2023-03-15T03:57:44.570Z,95112.13
2023-03-15T04:00:15.621Z,95127.91
2023-03-15T04:02:44.282Z,95099.00
2023-03-15T04:05:13.363Z,95138.13
2023-03-15T04:07:41.732Z,95132.16
2023-03-15T04:10:14.929Z,95141.13
2023-03-15T04:12:44.462Z,95147.63
2023-03-15T04:15:13.293Z,95151.31
2023-03-15T04:17:41.904Z,95142.75
2023-03-15T04:20:13.092Z,95146.78
2023-03-15T04:22:41.442Z,95133.22
2023-03-15T04:25:11.684Z,95149.81
2023-03-15T04:27:39.977Z,95156.44
2023-03-15T04:30:09.166Z,95135.84
2023-03-15T04:32:37.668Z,95147.97
2023-03-15T04:35:06.718Z,95143.06
2023-03-15T04:37:35.138Z,95138.19
2023-03-15T04:40:05.081Z,95143.19
2023-03-15T04:42:34.827Z,95155.34
2023-03-15T04:45:04.400Z,95153.16
2023-03-15T04:47:32.690Z,95145.19
2023-03-15T04:50:01.284Z,95145.34
2023-03-15T04:52:29.657Z,95154.66
2023-03-15T04:54:57.914Z,95153.06
2023-03-15T04:57:26.391Z,95158.50
2023-03-15T04:59:57.154Z,95151.56
2023-03-15T05:02:25.570Z,95148.78
2023-03-15T05:04:54.129Z,95127.63
2023-03-15T05:07:23.090Z,95127.03
2023-03-15T05:09:51.452Z,95067.47
2023-03-15T05:12:20.085Z,95157.31
2023-03-15T05:14:48.440Z,95168.44
2023-03-15T05:17:18.297Z,95180.22
2023-03-15T05:19:46.828Z,95173.22
2023-03-15T05:22:15.169Z,95166.91
2023-03-15T05:24:43.877Z,95171.69
2023-03-15T05:27:13.794Z,95169.69
2023-03-15T05:29:42.105Z,95176.38
2023-03-15T05:32:11.148Z,95132.63
2023-03-15T05:34:40.954Z,95154.53
2023-03-15T05:37:09.529Z,95194.06
2023-03-15T05:39:37.849Z,95194.56
2023-03-15T05:42:06.763Z,95215.72
2023-03-15T05:44:35.012Z,95208.66
2023-03-15T05:47:03.314Z,95212.56
2023-03-15T05:49:31.701Z,95219.41
2023-03-15T05:52:01.476Z,95220.44
2023-03-15T05:54:29.728Z,95216.69
2023-03-15T05:56:58.676Z,95207.25
2023-03-15T05:59:26.959Z,95225.16
2023-03-15T06:01:55.351Z,95223.75
2023-03-15T06:04:23.928Z,95233.47
2023-03-15T06:06:52.380Z,95225.44
2023-03-15T06:09:22.243Z,95229.34
2023-03-15T06:11:51.038Z,95234.78
2023-03-15T06:14:19.483Z,95228.38
2023-03-15T06:16:47.808Z,95244.28
2023-03-15T06:19:16.135Z,95234.63
2023-03-15T06:21:44.459Z,95247.91
2023-03-15T06:24:13.095Z,95258.50
2023-03-15T06:26:42.988Z,95257.69
2023-03-15T06:29:11.910Z,95264.16
2023-03-15T06:31:40.502Z,95270.16
2023-03-15T06:34:09.908Z,95277.19
2023-03-15T06:36:39.229Z,95275.59
2023-03-15T06:39:08.942Z,95266.59
2023-03-15T06:41:37.875Z,95270.13
2023-03-15T06:44:08.318Z,95272.56
2023-03-15T06:46:37.455Z,95271.88
2023-03-15T06:49:25.988Z,95272.06
2023-03-15T06:51:55.265Z,95274.25
2023-03-15T06:54:23.579Z,95278.44
2023-03-15T06:56:51.997Z,95283.13
2023-03-15T06:59:21.769Z,95285.50
2023-03-15T07:01:50.225Z,95280.84
2023-03-15T07:04:18.574Z,95283.03
2023-03-15T07:06:47.214Z,95285.66
2023-03-15T07:09:15.588Z,95284.84
2023-03-15T07:11:43.955Z,95284.63
2023-03-15T07:14:12.343Z,95253.84
2023-03-15T07:16:42.102Z,95302.81
2023-03-15T07:19:10.483Z,95298.03
2023-03-15T07:21:40.103Z,95301.84
2023-03-15T07:24:09.246Z,95184.06
2023-03-15T07:26:38.044Z,95306.34
2023-03-15T07:29:07.128Z,95317.41
2023-03-15T07:31:35.948Z,95267.47
2023-03-15T07:34:06.421Z,95305.31
2023-03-15T07:36:35.473Z,95283.56
2023-03-15T07:39:05.188Z,95319.03
2023-03-15T07:41:34.254Z,95310.97
2023-03-15T07:44:03.719Z,95320.13
2023-03-15T07:46:32.534Z,95316.53
2023-03-15T07:49:01.952Z,95301.78
2023-03-15T07:51:32.518Z,95296.75
2023-03-15T07:54:00.926Z,95282.28
2023-03-15T07:56:29.305Z,95334.44
2023-03-15T07:58:57.577Z,95336.09
2023-03-15T08:01:25.948Z,95331.09
2023-03-15T08:03:54.498Z,95338.75
2023-03-15T08:06:22.974Z,95332.47
2023-03-15T08:08:52.837Z,95337.00
2023-03-15T08:11:21.159Z,95344.88
2023-03-15T08:13:49.777Z,95349.47
2023-03-15T08:16:18.075Z,95347.59
2023-03-15T08:18:46.786Z,95358.56
2023-03-15T08:21:15.103Z,95357.88
2023-03-15T08:23:43.603Z,95358.50
2023-03-15T08:26:13.352Z,95358.19
2023-03-15T08:28:41.764Z,95354.88
2023-03-15T08:31:10.811Z,95363.31
2023-03-15T08:33:39.154Z,95369.72
2023-03-15T08:36:07.662Z,95376.63
2023-03-15T08:38:35.970Z,95380.47
2023-03-15T08:41:05.180Z,95310.13
2023-03-15T08:43:34.957Z,95385.69
2023-03-15T08:46:03.407Z,95379.69
2023-03-15T08:48:32.485Z,95381.88
2023-03-15T08:51:04.301Z,95389.84
2023-03-15T08:53:33.081Z,95386.06
2023-03-15T08:56:01.781Z,95380.19
2023-03-15T08:58:30.315Z,95372.19
2023-03-15T09:01:00.143Z,95393.28
2023-03-15T09:03:28.599Z,95389.72
2023-03-15T09:05:58.492Z,95396.78
2023-03-15T09:08:27.774Z,95398.75
2023-03-15T09:10:57.182Z,95401.66
2023-03-15T09:13:26.263Z,95405.69
2023-03-15T09:15:55.689Z,95414.97
2023-03-15T09:18:26.046Z,95412.41
2023-03-15T09:20:54.291Z,95410.09
2023-03-15T09:23:22.968Z,95406.63
2023-03-15T09:25:51.628Z,95408.81
2023-03-15T09:28:19.997Z,95418.44
2023-03-15T09:30:48.680Z,95414.38
2023-03-15T09:33:17.091Z,95424.78
2023-03-15T09:35:47.019Z,95417.25
2023-03-15T09:38:16.200Z,95423.28
2023-03-15T09:40:46.315Z,95427.91
2023-03-15T09:43:37.110Z,95433.19
2023-03-15T09:46:20.185Z,95441.44
2023-03-15T09:48:56.245Z,95440.19
2023-03-15T09:51:38.631Z,95450.59
2023-03-15T09:54:13.102Z,95451.28
2023-03-15T09:56:47.597Z,95454.63
2023-03-15T09:59:23.119Z,95444.78
2023-03-15T10:01:55.685Z,95444.44
2023-03-15T10:04:29.304Z,95466.28
2023-03-15T10:07:01.771Z,95467.94
2023-03-15T10:09:34.822Z,95462.59
2023-03-15T10:12:11.030Z,95468.84
2023-03-15T10:15:07.166Z,95448.13
2023-03-15T10:17:43.562Z,95473.72
2023-03-15T10:20:16.628Z,95464.53
2023-03-15T10:22:54.026Z,95442.91
2023-03-15T10:25:26.379Z,95465.25
2023-03-15T10:27:57.755Z,95465.34
2023-03-15T10:30:28.090Z,95470.84
2023-03-15T10:33:01.202Z,95464.94
2023-03-15T10:35:29.648Z,95469.84
2023-03-15T10:38:02.837Z,95468.78
2023-03-15T10:40:42.130Z,95475.47
2023-03-15T10:43:22.103Z,95472.69
2023-03-15T10:46:01.322Z,95474.94
2023-03-15T10:48:31.355Z,95476.22
2023-03-15T10:51:04.419Z,95475.44
2023-03-15T10:53:34.209Z,95478.41
2023-03-15T10:56:05.583Z,95478.75
2023-03-15T10:58:42.154Z,95476.41
2023-03-15T11:01:15.174Z,95484.56
2023-03-15T11:03:44.840Z,95476.94
2023-03-15T11:06:24.561Z,95481.69
2023-03-15T11:08:55.504Z,95482.13
2023-03-15T11:11:23.847Z,95484.19
2023-03-15T11:14:01.705Z,95483.94
2023-03-15T11:16:36.519Z,95477.34
2023-03-15T11:19:13.750Z,95469.28
2023-03-15T11:21:43.921Z,95489.88
2023-03-15T11:24:26.255Z,95487.28
2023-03-15T11:26:56.909Z,95482.72
2023-03-15T11:29:28.230Z,95491.09
2023-03-15T11:31:58.106Z,95436.84
2023-03-15T11:34:36.744Z,95495.28
2023-03-15T11:37:13.124Z,95487.97
2023-03-15T11:39:46.852Z,95430.53
2023-03-15T11:42:18.071Z,95486.91
2023-03-15T11:44:48.627Z,95491.31
2023-03-15T11:47:26.736Z,95462.63
2023-03-15T11:49:57.186Z,95473.41
2023-03-15T11:52:28.417Z,95503.94
2023-03-15T11:55:00.278Z,95503.00
2023-03-15T11:57:41.527Z,95505.00
2023-03-15T12:00:51.655Z,95503.72
2023-03-15T12:03:40.219Z,95507.66
2023-03-15T12:06:27.199Z,95486.47
2023-03-15T12:08:57.003Z,95486.47
2023-03-15T12:11:43.691Z,95505.81
2023-03-15T12:14:29.071Z,95489.50
2023-03-15T12:17:36.355Z,95490.53
2023-03-15T12:20:15.163Z,95494.25
2023-03-15T12:22:49.924Z,95500.13
2023-03-15T12:25:23.675Z,95503.16
2023-03-15T12:27:56.865Z,95501.88
2023-03-15T12:30:32.142Z,95504.53
2023-03-15T12:33:03.544Z,95508.00
2023-03-15T12:35:39.815Z,95485.78
2023-03-15T12:38:14.419Z,95501.88
2023-03-15T12:40:54.917Z,95506.81
2023-03-15T12:43:44.426Z,95515.00
2023-03-15T12:46:45.951Z,95519.91
2023-03-15T12:49:31.950Z,95527.81
2023-03-15T12:52:02.817Z,95522.44
2023-03-15T12:54:36.279Z,95552.59
2023-03-15T12:57:05.992Z,95548.63
2023-03-15T12:59:51.512Z,95558.25
2023-03-15T13:02:42.860Z,95492.19
2023-03-15T13:05:20.651Z,95571.03
2023-03-15T13:08:09.279Z,95542.16
2023-03-15T13:10:40.883Z,95579.75
2023-03-15T13:13:27.172Z,95589.50
2023-03-15T13:16:15.632Z,95576.19
2023-03-15T13:18:54.408Z,95569.69
2023-03-15T13:21:28.289Z,95566.66
2023-03-15T13:24:00.376Z,95568.66
2023-03-15T13:26:51.771Z,95566.13
2023-03-15T13:29:27.846Z,95517.13
2023-03-15T13:32:08.351Z,95564.00
2023-03-15T13:34:37.494Z,95560.53
2023-03-15T13:37:12.466Z,95559.03
2023-03-15T13:39:40.932Z,95485.53
2023-03-15T13:42:20.069Z,95555.59
2023-03-15T13:44:55.928Z,95533.59
2023-03-15T13:47:27.959Z,95558.78
2023-03-15T13:49:58.627Z,95563.94
2023-03-15T13:52:26.892Z,95561.75
2023-03-15T13:54:55.657Z,95551.66
2023-03-15T13:57:24.964Z,95579.56
2023-03-15T13:59:57.927Z,95575.63
2023-03-15T14:02:36.572Z,95578.53
2023-03-15T14:05:10.992Z,95565.28
2023-03-15T14:07:41.033Z,95579.19
2023-03-15T14:10:22.753Z,95583.84
2023-03-15T14:12:52.147Z,95576.78
2023-03-15T14:15:22.944Z,95576.19
2023-03-15T14:18:04.576Z,95536.84
2023-03-15T14:20:39.894Z,95578.41
2023-03-15T14:23:12.917Z,95591.72
2023-03-15T14:25:42.291Z,95562.56
2023-03-15T14:28:17.093Z,95584.34
2023-03-15T14:30:53.965Z,95579.13
2023-03-15T14:33:33.481Z,95588.84
2023-03-15T14:36:03.873Z,95594.41
2023-03-15T14:38:37.661Z,95583.97
2023-03-15T14:41:13.468Z,95588.38
2023-03-15T14:43:41.740Z,95588.38
2023-03-15T14:46:10.777Z,95564.28
2023-03-15T14:48:41.367Z,95510.31
2023-03-15T14:51:15.963Z,95542.63
2023-03-15T14:53:45.653Z,95573.88
2023-03-15T14:56:15.062Z,95580.47
2023-03-15T14:58:44.958Z,95591.97
2023-03-15T15:01:16.840Z,95593.47
2023-03-15T15:03:50.505Z,95560.00
2023-03-15T15:06:18.944Z,95594.88
2023-03-15T15:08:48.971Z,95597.88
2023-03-15T15:11:17.536Z,95607.25
2023-03-15T15:13:45.831Z,95608.53
2023-03-15T15:16:14.201Z,95599.50
2023-03-15T15:18:45.728Z,95499.41
2023-03-15T15:21:20.619Z,95609.59
2023-03-15T15:23:58.497Z,95618.25
2023-03-15T15:26:31.180Z,95620.91
2023-03-15T15:29:00.799Z,95618.03
2023-03-15T15:31:33.864Z,95621.63
2023-03-15T15:34:02.818Z,95622.47
2023-03-15T15:36:35.962Z,95615.38
2023-03-15T15:39:07.130Z,95620.34
2023-03-15T15:41:51.959Z,95623.84
2023-03-15T15:44:22.188Z,95621.97
2023-03-15T15:46:50.791Z,95599.97
2023-03-15T15:49:19.608Z,95623.72
2023-03-15T15:51:50.587Z,95634.00
2023-03-15T15:54:22.062Z,95599.56
2023-03-15T15:56:53.456Z,95604.56
2023-03-15T15:59:22.683Z,95629.09
2023-03-15T16:02:03.453Z,95636.19
2023-03-15T16:04:33.076Z,95617.91
2023-03-15T16:07:05.420Z,95591.81
2023-03-15T16:09:37.463Z,95633.66
2023-03-15T16:12:24.024Z,95650.69
2023-03-15T16:14:54.196Z,95658.59
2023-03-15T16:17:25.802Z,95663.34
2023-03-15T16:19:55.658Z,95656.03
2023-03-15T16:22:27.239Z,95670.44
2023-03-15T16:24:58.468Z,95669.16
2023-03-15T16:27:29.864Z,95670.63
2023-03-15T16:29:58.236Z,95585.84
2023-03-15T16:32:41.368Z,95686.06
2023-03-15T16:35:15.988Z,95699.88
2023-03-15T16:37:47.498Z,95712.16
2023-03-15T16:40:21.566Z,95710.28
2023-03-15T16:42:50.804Z,95720.72
2023-03-15T16:45:19.774Z,95689.59
2023-03-15T16:47:48.659Z,95725.31
2023-03-15T17:10:44.629Z,95761.91
2023-03-15T17:28:35.295Z,95795.50
2023-03-15T17:31:23.897Z,95792.06
2023-03-15T17:37:40.121Z,95814.88
2023-03-15T17:40:19.745Z,95815.75
2023-03-15T17:42:48.427Z,95821.50
2023-03-15T17:45:22.567Z,95825.50
2023-03-15T17:47:52.901Z,95746.41
2023-03-15T17:50:22.263Z,95824.94
2023-03-15T17:52:55.883Z,95825.78
2023-03-15T17:55:25.178Z,95828.38
2023-03-15T17:57:55.605Z,95792.22
2023-03-15T18:00:28.005Z,95834.19
2023-03-15T18:02:56.840Z,95840.38
2023-03-15T18:05:28.007Z,95832.22
2023-03-15T18:07:58.999Z,95835.91
2023-03-15T18:10:33.262Z,95829.84
2023-03-15T18:13:01.705Z,95846.78
2023-03-15T18:15:35.213Z,95736.69
2023-03-15T18:18:06.215Z,95847.69
2023-03-15T18:20:34.800Z,95854.66
2023-03-15T18:23:03.153Z,95849.16
2023-03-15T18:25:35.004Z,95844.50
2023-03-15T18:28:06.506Z,95646.31
2023-03-15T18:30:37.265Z,95844.09
2023-03-15T18:33:06.422Z,95848.81
2023-03-15T18:35:36.680Z,95834.59
2023-03-15T18:38:05.534Z,95854.13
2023-03-15T18:40:35.960Z,95816.25
2023-03-15T18:43:05.935Z,95833.59
2023-03-15T18:45:37.660Z,95820.31
2023-03-15T18:48:06.583Z,95822.94
2023-03-15T18:50:35.869Z,95846.34
2023-03-15T18:53:06.163Z,95851.47
2023-03-15T18:55:34.992Z,95783.03
2023-03-15T18:58:03.958Z,95849.25
2023-03-15T19:00:37.130Z,95854.97
2023-03-15T19:03:06.849Z,95861.13
2023-03-15T19:05:36.940Z,95863.19
2023-03-15T19:08:05.802Z,95854.22
2023-03-15T19:10:34.381Z,95857.88
2023-03-15T19:13:04.606Z,95855.41
2023-03-15T19:15:33.166Z,95864.63
2023-03-15T19:18:03.025Z,95865.66
2023-03-15T19:20:31.853Z,95871.81
2023-03-15T19:23:00.179Z,95874.44
2023-03-15T19:25:29.772Z,95841.25
2023-03-15T19:27:58.496Z,95881.59
2023-03-15T19:30:27.887Z,95873.06
2023-03-15T19:32:56.544Z,95877.97
2023-03-15T19:35:27.212Z,95879.41
2023-03-15T19:37:56.750Z,95871.66
2023-03-15T19:40:25.358Z,95887.16
2023-03-15T19:42:53.716Z,95884.91
2023-03-15T19:45:22.056Z,95892.88
2023-03-15T19:47:50.737Z,95825.44
2023-03-15T19:50:19.829Z,95893.28
2023-03-15T19:52:50.123Z,95902.88
2023-03-15T19:55:20.346Z,95902.47
2023-03-15T19:57:49.148Z,95904.94
2023-03-15T20:00:20.345Z,95899.00
2023-03-15T20:02:49.923Z,95911.47
2023-03-15T20:05:20.530Z,95911.25
2023-03-15T20:07:52.424Z,95905.53
2023-03-15T20:10:21.905Z,95913.72
2023-03-15T20:12:52.016Z,95917.38
2023-03-15T20:15:21.352Z,95888.22
2023-03-15T20:17:49.835Z,95907.38
2023-03-15T20:20:19.783Z,95894.34
2023-03-15T20:22:50.484Z,95927.78
2023-03-15T20:25:20.888Z,95933.69
2023-03-15T20:27:50.030Z,95942.88
2023-03-15T20:30:20.405Z,95937.97
2023-03-15T20:32:49.727Z,95925.72
2023-03-15T20:35:20.114Z,95935.91
2023-03-15T20:37:53.294Z,95945.09
2023-03-15T20:40:23.331Z,95946.53
2023-03-15T20:42:53.644Z,95949.41
2023-03-15T20:45:22.758Z,95952.06
2023-03-15T20:47:52.133Z,95961.19
2023-03-15T20:50:21.728Z,95878.78
2023-03-15T20:52:52.355Z,95964.25
2023-03-15T20:55:21.460Z,95959.34
2023-03-15T20:57:50.859Z,95965.28
2023-03-15T21:00:20.677Z,95962.19
2023-03-15T21:02:49.996Z,95966.50
2023-03-15T21:05:19.381Z,95968.53
2023-03-15T21:07:48.376Z,95957.28
2023-03-15T21:10:19.914Z,95972.56
2023-03-15T21:12:48.384Z,95975.19
2023-03-15T21:15:18.137Z,95963.00
2023-03-15T21:17:49.262Z,95959.31
2023-03-15T21:20:18.530Z,95974.16
2023-03-15T21:22:47.096Z,95967.03
2023-03-15T21:25:16.342Z,95977.63
2023-03-15T21:27:46.346Z,95976.59
2023-03-15T21:30:15.778Z,95977.81
2023-03-15T21:32:45.328Z,95969.00
2023-03-15T21:35:14.698Z,95976.94
2023-03-15T21:37:43.252Z,95979.59
2023-03-15T21:40:13.616Z,95983.47
2023-03-15T21:42:44.108Z,95982.25
2023-03-15T21:45:14.373Z,95977.94
2023-03-15T21:47:47.375Z,95981.00
2023-03-15T21:50:16.220Z,95977.72
2023-03-15T21:52:45.031Z,95986.50
2023-03-15T21:55:16.299Z,95982.00
2023-03-15T21:57:46.300Z,95982.22
2023-03-15T22:00:18.751Z,95990.75
2023-03-15T22:02:47.547Z,95989.91
2023-03-15T22:05:15.924Z,95989.47
2023-03-15T22:07:44.638Z,95986.22
2023-03-15T22:10:14.908Z,95989.03
2023-03-15T22:12:43.949Z,95982.75
2023-03-15T22:15:13.508Z,95980.09
2023-03-15T22:17:45.278Z,95974.81
2023-03-15T22:20:16.990Z,95989.03
2023-03-15T22:22:45.668Z,95985.72
2023-03-15T22:25:14.412Z,95981.66
2023-03-15T22:27:43.026Z,95933.44
2023-03-15T22:30:13.697Z,95984.47
2023-03-15T22:32:44.601Z,95984.84
2023-03-15T22:35:14.033Z,95982.22
2023-03-15T22:37:42.615Z,95982.22
2023-03-15T22:40:14.308Z,95984.47
2023-03-15T22:42:43.103Z,95981.59
2023-03-15T22:45:11.919Z,95982.38
2023-03-15T22:47:40.232Z,95952.56
2023-03-15T22:50:12.168Z,95982.59
2023-03-15T22:52:40.585Z,95981.13
2023-03-15T22:55:10.631Z,95983.75
2023-03-15T22:57:38.997Z,95987.19
2023-03-15T23:00:22.636Z,95987.19
2023-03-15T23:02:51.289Z,95992.84
2023-03-15T23:05:21.372Z,95990.81
2023-03-15T23:07:49.690Z,95998.97
2023-03-15T23:10:18.087Z,95994.28
2023-03-15T23:12:46.344Z,95999.34
2023-03-15T23:15:15.104Z,95987.94
2023-03-15T23:17:46.717Z,96009.50
2023-03-15T23:20:16.490Z,96004.69
2023-03-15T23:22:46.609Z,96011.31
2023-03-15T23:25:16.193Z,96005.78
2023-03-15T23:27:44.791Z,96005.78
2023-03-15T23:30:14.454Z,96002.34
2023-03-15T23:32:43.158Z,96006.88
2023-03-15T23:35:13.493Z,96003.25
2023-03-15T23:37:42.069Z,95959.84
2023-03-15T23:40:15.727Z,95997.06
2023-03-15T23:42:45.001Z,95994.03
2023-03-15T23:45:15.341Z,95996.66
2023-03-15T23:47:44.036Z,96005.53
2023-03-15T23:50:13.926Z,96005.53
2023-03-15T23:52:42.585Z,96001.88
2023-03-15T23:55:12.699Z,96009.81
2023-03-15T23:57:42.090Z,96010.63
